createdAt,value
2017-05-21T00:00:36.968Z,12.07
2017-05-21T00:01:37.572Z,11.99
2017-05-21T00:02:37.258Z,11.96
2017-05-21T00:03:37.558Z,11.93
2017-05-21T00:04:37.251Z,11.99
2017-05-21T00:05:37.245Z,11.96
2017-05-21T00:06:37.237Z,11.86
2017-05-21T00:07:37.302Z,11.85
2017-05-21T00:08:37.533Z,11.95
2017-05-21T00:09:37.590Z,11.83
2017-05-21T00:10:37.531Z,11.85
2017-05-21T00:11:37.212Z,11.81
2017-05-21T00:12:37.515Z,11.95
2017-05-21T00:13:37.513Z,11.91
2017-05-21T00:14:37.505Z,11.96
2017-05-21T00:15:37.497Z,12.02
2017-05-21T00:16:37.493Z,11.96
2017-05-21T00:17:37.187Z,11.97
2017-05-21T00:18:37.179Z,12.02
2017-05-21T00:19:37.175Z,12.03
2017-05-21T00:20:37.474Z,11.97
2017-05-21T00:21:37.472Z,12.02
2017-05-21T00:22:37.464Z,12
2017-05-21T00:23:37.465Z,11.97
2017-05-21T00:24:37.151Z,11.99
2017-05-21T00:25:37.450Z,12.02
2017-05-21T00:26:37.139Z,12
2017-05-21T00:27:36.830Z,12
2017-05-21T00:28:36.820Z,12.02
2017-05-21T00:29:36.816Z,11.99
2017-05-21T00:30:36.810Z,11.99
2017-05-21T00:31:36.878Z,11.95
2017-05-21T00:32:36.801Z,12.02
2017-05-21T00:33:37.155Z,12.1
2017-05-21T00:34:36.789Z,12.02
2017-05-21T00:35:37.396Z,11.95
2017-05-21T00:36:37.390Z,11.97
2017-05-21T00:37:37.081Z,12.05
2017-05-21T00:38:37.077Z,11.96
2017-05-21T00:39:37.377Z,12
2017-05-21T00:40:37.071Z,11.99
2017-05-21T00:41:37.366Z,11.95
2017-05-21T00:42:37.058Z,11.96
2017-05-21T00:43:37.361Z,11.95
2017-05-21T00:44:37.355Z,11.86
2017-05-21T00:45:37.361Z,11.93
2017-05-21T00:46:37.341Z,11.89
2017-05-21T00:47:37.342Z,11.99
2017-05-21T00:48:37.028Z,11.86
2017-05-21T00:49:37.331Z,11.93
2017-05-21T00:50:36.712Z,11.93
2017-05-21T00:51:37.011Z,11.95
2017-05-21T00:52:37.009Z,12.03
2017-05-21T00:53:37.000Z,12.11
2017-05-21T00:54:36.694Z,11.99
2017-05-21T00:55:37.298Z,12.03
2017-05-21T00:56:36.681Z,12.02
2017-05-21T00:57:36.985Z,11.97
2017-05-21T00:58:36.988Z,11.99
2017-05-21T00:59:36.970Z,12.07
2017-05-21T01:00:36.974Z,12.02
2017-05-21T01:01:36.964Z,11.97
2017-05-21T01:02:36.649Z,11.99
2017-05-21T01:03:36.643Z,12
2017-05-21T01:04:36.947Z,11.95
2017-05-21T01:05:36.638Z,12
2017-05-21T01:06:36.629Z,12.02
2017-05-21T01:07:37.243Z,11.95
2017-05-21T01:08:36.927Z,11.85
2017-05-21T01:09:36.923Z,11.93
2017-05-21T01:10:36.610Z,11.91
2017-05-21T01:11:37.219Z,11.95
2017-05-21T01:12:37.211Z,11.85
2017-05-21T01:13:36.903Z,11.93
2017-05-21T01:14:37.202Z,11.89
2017-05-21T01:15:36.893Z,11.89
2017-05-21T01:16:36.884Z,11.86
2017-05-21T01:17:36.884Z,11.8
2017-05-21T01:18:36.568Z,11.78
2017-05-21T01:19:37.180Z,11.78
2017-05-21T01:20:36.866Z,11.8
2017-05-21T01:21:37.167Z,11.76
2017-05-21T01:22:37.161Z,11.74
2017-05-21T01:23:36.855Z,11.73
2017-05-21T01:24:36.539Z,11.78
2017-05-21T01:25:37.143Z,11.76
2017-05-21T01:26:36.526Z,11.74
2017-05-21T01:27:36.524Z,11.73
2017-05-21T01:28:36.519Z,11.78
2017-05-21T01:29:37.128Z,11.78
2017-05-21T01:30:36.510Z,11.73
2017-05-21T01:31:36.808Z,11.8
2017-05-21T01:32:36.497Z,11.78
2017-05-21T01:33:36.496Z,11.76
2017-05-21T01:34:36.796Z,11.78
2017-05-21T01:35:36.790Z,11.78
2017-05-21T01:36:36.476Z,11.8
2017-05-21T01:37:37.093Z,11.8
2017-05-21T01:38:36.780Z,11.81
2017-05-21T01:39:36.467Z,11.68
2017-05-21T01:40:36.764Z,11.78
2017-05-21T01:41:36.450Z,11.71
2017-05-21T01:42:36.753Z,11.71
2017-05-21T01:43:37.059Z,11.74
2017-05-21T01:44:36.748Z,11.78
2017-05-21T01:45:36.738Z,11.71
2017-05-21T01:46:37.035Z,11.77
2017-05-21T01:47:37.037Z,11.83
2017-05-21T01:48:36.422Z,11.85
2017-05-21T01:49:36.720Z,11.8
2017-05-21T01:50:36.712Z,11.85
2017-05-21T01:51:36.724Z,11.78
2017-05-21T01:52:37.009Z,11.81
2017-05-21T01:53:37.006Z,11.83
2017-05-21T01:54:36.693Z,11.81
2017-05-21T01:55:36.383Z,11.8
2017-05-21T01:56:36.682Z,11.8
2017-05-21T01:57:36.677Z,11.8
2017-05-21T01:58:36.676Z,11.83
2017-05-21T01:59:36.972Z,11.78
2017-05-21T02:00:36.967Z,11.77
2017-05-21T02:01:36.959Z,11.77
2017-05-21T02:02:36.956Z,11.74
2017-05-21T02:03:36.649Z,11.76
2017-05-21T02:04:36.639Z,11.77
2017-05-21T02:05:36.631Z,11.7
2017-05-21T02:06:36.630Z,11.81
2017-05-21T02:07:36.623Z,11.65
2017-05-21T02:08:36.622Z,11.68
2017-05-21T02:09:36.922Z,11.67
2017-05-21T02:10:36.912Z,11.65
2017-05-21T02:11:36.600Z,11.7
2017-05-21T02:12:36.905Z,11.62
2017-05-21T02:13:36.594Z,11.62
2017-05-21T02:14:36.592Z,11.6
2017-05-21T02:15:36.273Z,11.63
2017-05-21T02:16:36.573Z,11.58
2017-05-21T02:17:36.571Z,11.59
2017-05-21T02:18:36.582Z,11.55
2017-05-21T02:19:36.561Z,11.53
2017-05-21T02:20:36.553Z,11.56
2017-05-21T02:21:36.548Z,11.49
2017-05-21T02:22:36.297Z,11.4
2017-05-21T02:23:36.552Z,11.27
2017-05-21T02:24:36.539Z,11.22
2017-05-21T02:25:36.835Z,11.1
2017-05-21T02:26:36.883Z,11.12
2017-05-21T02:27:36.829Z,10.9
2017-05-21T02:28:36.822Z,10.9
2017-05-21T02:29:36.814Z,10.83
2017-05-21T02:30:36.810Z,10.84
2017-05-21T02:31:36.804Z,10.72
2017-05-21T02:32:36.797Z,10.75
2017-05-21T02:33:36.795Z,10.71
2017-05-21T02:34:36.792Z,10.61
2017-05-21T02:35:36.787Z,10.62
2017-05-21T02:36:36.777Z,10.58
2017-05-21T02:37:36.778Z,10.61
2017-05-21T02:38:36.769Z,10.49
2017-05-21T02:39:36.155Z,10.42
2017-05-21T02:40:36.756Z,10.46
2017-05-21T02:41:36.756Z,10.43
2017-05-21T02:42:36.441Z,10.41
2017-05-21T02:43:36.433Z,10.43
2017-05-21T02:44:36.741Z,10.41
2017-05-21T02:45:36.732Z,10.28
2017-05-21T02:46:36.423Z,10.27
2017-05-21T02:47:36.415Z,10.3
2017-05-21T02:48:36.718Z,10.28
2017-05-21T02:49:36.405Z,10.28
2017-05-21T02:50:36.398Z,10.28
2017-05-21T02:51:36.702Z,10.24
2017-05-21T02:52:36.082Z,10.23
2017-05-21T02:53:36.384Z,10.27
2017-05-21T02:54:36.582Z,10.21
2017-05-21T02:55:36.682Z,10.25
2017-05-21T02:56:36.677Z,10.21
2017-05-21T02:57:36.366Z,10.13
2017-05-21T02:58:36.057Z,10.18
2017-05-21T02:59:36.353Z,10.21
2017-05-21T03:00:36.654Z,10.17
2017-05-21T03:01:36.342Z,10.07
2017-05-21T03:02:36.644Z,10.06
2017-05-21T03:03:36.639Z,10.07
2017-05-21T03:04:36.634Z,10.15
2017-05-21T03:05:36.629Z,10.1
2017-05-21T03:06:36.623Z,10.1
2017-05-21T03:07:36.621Z,10.05
2017-05-21T03:08:36.618Z,10
2017-05-21T03:09:36.608Z,9.97
2017-05-21T03:10:36.601Z,9.94
2017-05-21T03:11:36.599Z,9.88
2017-05-21T03:12:36.290Z,9.88
2017-05-21T03:13:36.280Z,9.92
2017-05-21T03:14:36.276Z,9.9
2017-05-21T03:15:36.269Z,9.87
2017-05-21T03:16:36.270Z,9.85
2017-05-21T03:17:36.264Z,9.92
2017-05-21T03:18:36.564Z,9.9
2017-05-21T03:19:36.556Z,9.92
2017-05-21T03:20:36.548Z,9.9
2017-05-21T03:21:36.541Z,9.92
2017-05-21T03:22:36.538Z,9.84
2017-05-21T03:23:35.927Z,9.92
2017-05-21T03:24:36.530Z,9.97
2017-05-21T03:25:36.215Z,9.91
2017-05-21T03:26:36.517Z,9.85
2017-05-21T03:27:36.511Z,9.99
2017-05-21T03:28:36.507Z,9.91
2017-05-21T03:29:36.506Z,10.03
2017-05-21T03:30:36.495Z,9.94
2017-05-21T03:31:36.195Z,10
2017-05-21T03:32:35.872Z,10
2017-05-21T03:33:36.486Z,10.03
2017-05-21T03:34:36.476Z,10.07
2017-05-21T03:35:36.472Z,10.23
2017-05-21T03:36:36.163Z,10.05
2017-05-21T03:37:35.847Z,10.1
2017-05-21T03:38:36.455Z,10.13
2017-05-21T03:39:36.145Z,10.21
2017-05-21T03:40:36.446Z,10.13
2017-05-21T03:41:36.133Z,10.27
2017-05-21T03:42:36.435Z,10.25
2017-05-21T03:43:36.126Z,10.36
2017-05-21T03:44:36.424Z,10.45
2017-05-21T03:45:36.416Z,10.49
2017-05-21T03:46:36.103Z,10.53
2017-05-21T03:47:36.101Z,10.48
2017-05-21T03:48:36.404Z,10.65
2017-05-21T03:49:36.395Z,10.68
2017-05-21T03:50:36.087Z,10.79
2017-05-21T03:51:36.388Z,10.87
2017-05-21T03:52:36.380Z,10.72
2017-05-21T03:53:36.374Z,10.82
2017-05-21T03:54:35.763Z,10.87
2017-05-21T03:55:36.363Z,10.94
2017-05-21T03:56:36.360Z,10.95
2017-05-21T03:57:36.357Z,10.92
2017-05-21T03:58:36.349Z,11
2017-05-21T03:59:36.038Z,11.04
2017-05-21T04:00:35.730Z,11.07
2017-05-21T04:01:36.026Z,11.16
2017-05-21T04:02:36.332Z,11.2
2017-05-21T04:03:36.329Z,11.19
2017-05-21T04:04:36.323Z,11.2
2017-05-21T04:05:36.312Z,11.27
2017-05-21T04:06:36.308Z,11.18
2017-05-21T04:07:36.302Z,11.34
2017-05-21T04:08:36.298Z,11.31
2017-05-21T04:09:35.989Z,11.34
2017-05-21T04:10:36.290Z,11.37
2017-05-21T04:11:36.284Z,11.37
2017-05-21T04:12:36.276Z,11.44
2017-05-21T04:13:36.272Z,11.41
2017-05-21T04:14:36.266Z,11.52
2017-05-21T04:15:36.259Z,11.51
2017-05-21T04:16:36.257Z,11.6
2017-05-21T04:17:36.250Z,11.6
2017-05-21T04:18:35.939Z,11.63
2017-05-21T04:19:36.236Z,11.67
2017-05-21T04:20:36.229Z,11.77
2017-05-21T04:21:35.923Z,11.76
2017-05-21T04:22:36.220Z,11.81
2017-05-21T04:23:36.218Z,11.85
2017-05-21T04:24:36.210Z,11.88
2017-05-21T04:25:35.900Z,12.03
2017-05-21T04:26:35.895Z,12.28
2017-05-21T04:27:36.195Z,12.65
2017-05-21T04:28:36.192Z,13.19
2017-05-21T04:29:35.876Z,13.49
2017-05-21T04:30:36.184Z,13.78
2017-05-21T04:31:36.172Z,14.19
2017-05-21T04:32:36.173Z,14.34
2017-05-21T04:33:36.166Z,14.4
2017-05-21T04:34:36.156Z,14.51
2017-05-21T04:35:35.849Z,14.71
2017-05-21T04:36:36.148Z,15
2017-05-21T04:37:35.840Z,15.25
2017-05-21T04:38:35.523Z,15.43
2017-05-21T04:39:35.837Z,15.63
2017-05-21T04:40:36.134Z,15.83
2017-05-21T04:41:36.125Z,15.96
2017-05-21T04:42:36.118Z,15.9
2017-05-21T04:43:36.115Z,15.83
2017-05-21T04:44:36.110Z,16.09
2017-05-21T04:45:35.800Z,16.25
2017-05-21T04:46:36.102Z,16.46
2017-05-21T04:47:36.098Z,16.51
2017-05-21T04:48:36.092Z,16.64
2017-05-21T04:49:36.083Z,16.79
2017-05-21T04:50:36.079Z,16.8
2017-05-21T04:51:36.076Z,16.8
2017-05-21T04:52:35.765Z,16.86
2017-05-21T04:53:36.067Z,16.92
2017-05-21T04:54:35.758Z,17.09
2017-05-21T04:55:35.753Z,17.22
2017-05-21T04:56:36.054Z,17.31
2017-05-21T04:57:36.059Z,17.28
2017-05-21T04:58:36.048Z,17.24
2017-05-21T04:59:36.041Z,17.28
2017-05-21T05:00:35.732Z,17.49
2017-05-21T05:01:36.033Z,17.52
2017-05-21T05:02:35.419Z,17.66
2017-05-21T05:03:35.721Z,17.69
2017-05-21T05:04:36.017Z,17.65
2017-05-21T05:05:36.014Z,17.66
2017-05-21T05:06:36.011Z,17.66
2017-05-21T05:07:36.004Z,17.56
2017-05-21T05:08:35.699Z,17.68
2017-05-21T05:09:35.693Z,17.82
2017-05-21T05:10:35.996Z,17.82
2017-05-21T05:11:35.991Z,18.02
2017-05-21T05:12:35.377Z,18.09
2017-05-21T05:13:35.985Z,18.09
2017-05-21T05:14:35.979Z,18.13
2017-05-21T05:15:35.370Z,18.24
2017-05-21T05:16:35.669Z,18.41
2017-05-21T05:17:35.972Z,18.67
2017-05-21T05:18:35.965Z,18.88
2017-05-21T05:19:35.963Z,19.17
2017-05-21T05:20:35.964Z,19.23
2017-05-21T05:21:35.952Z,19.26
2017-05-21T05:22:35.951Z,19.16
2017-05-21T05:23:35.646Z,18.89
2017-05-21T05:24:35.640Z,18.74
2017-05-21T05:25:35.943Z,18.73
2017-05-21T05:26:35.938Z,18.58
2017-05-21T05:27:35.937Z,18.74
2017-05-21T05:28:35.935Z,18.76
2017-05-21T05:29:35.630Z,18.86
2017-05-21T05:30:35.930Z,18.86
2017-05-21T05:31:35.927Z,18.86
2017-05-21T05:32:35.616Z,18.82
2017-05-21T05:33:35.921Z,18.92
2017-05-21T05:34:35.611Z,19.01
2017-05-21T05:35:35.919Z,18.86
2017-05-21T05:36:35.608Z,18.83
2017-05-21T05:37:35.912Z,18.82
2017-05-21T05:38:35.603Z,18.85
2017-05-21T05:39:35.906Z,18.94
2017-05-21T05:40:35.907Z,18.94
2017-05-21T05:41:35.900Z,18.89
2017-05-21T05:42:35.596Z,18.89
2017-05-21T05:43:35.902Z,19.15
2017-05-21T05:44:35.898Z,19.38
2017-05-21T05:45:35.899Z,19.47
2017-05-21T05:46:35.896Z,19.56
2017-05-21T05:47:35.891Z,19.45
2017-05-21T05:48:35.893Z,19.44
2017-05-21T05:49:35.896Z,19.47
2017-05-21T05:50:35.582Z,19.39
2017-05-21T05:51:35.888Z,19.37
2017-05-21T05:52:35.884Z,19.41
2017-05-21T05:53:35.580Z,19.32
2017-05-21T05:54:35.887Z,19.42
2017-05-21T05:55:35.576Z,19.29
2017-05-21T05:56:35.881Z,19.16
2017-05-21T05:57:35.882Z,19.08
2017-05-21T05:58:35.582Z,19.11
2017-05-21T05:59:35.882Z,19.05
2017-05-21T06:00:35.882Z,19.23
2017-05-21T06:01:35.576Z,19.15
2017-05-21T06:02:35.878Z,18.97
2017-05-21T06:03:35.880Z,19
2017-05-21T06:04:35.927Z,19.11
2017-05-21T06:05:35.573Z,19.11
2017-05-21T06:06:35.881Z,19.19
2017-05-21T06:07:35.883Z,19.39
2017-05-21T06:08:35.885Z,19.6
2017-05-21T06:09:35.574Z,19.78
2017-05-21T06:10:35.576Z,19.89
2017-05-21T06:11:35.881Z,20.1
2017-05-21T06:12:35.880Z,20.11
2017-05-21T06:13:35.882Z,19.97
2017-05-21T06:14:35.885Z,19.78
2017-05-21T06:15:35.885Z,19.78
2017-05-21T06:16:35.578Z,19.75
2017-05-21T06:17:35.884Z,19.6
2017-05-21T06:18:35.888Z,19.63
2017-05-21T06:19:35.649Z,19.55
2017-05-21T06:20:35.586Z,19.57
2017-05-21T06:21:35.588Z,19.92
2017-05-21T06:22:35.897Z,20.11
2017-05-21T06:23:35.588Z,20.44
2017-05-21T06:24:35.897Z,20.58
2017-05-21T06:25:35.589Z,20.46
2017-05-21T06:26:35.592Z,20.52
2017-05-21T06:27:35.900Z,20.49
2017-05-21T06:28:35.901Z,20.46
2017-05-21T06:29:35.904Z,20.55
2017-05-21T06:30:35.904Z,20.6
2017-05-21T06:31:35.292Z,20.73
2017-05-21T06:32:35.969Z,20.89
2017-05-21T06:33:35.606Z,20.85
2017-05-21T06:34:35.911Z,20.82
2017-05-21T06:35:35.607Z,20.85
2017-05-21T06:36:35.611Z,21.03
2017-05-21T06:37:35.924Z,20.86
2017-05-21T06:38:35.615Z,20.9
2017-05-21T06:39:35.620Z,21.08
2017-05-21T06:40:35.623Z,21.22
2017-05-21T06:41:35.933Z,21.38
2017-05-21T06:42:35.630Z,21.47
2017-05-21T06:43:35.933Z,21.44
2017-05-21T06:44:35.634Z,21.3
2017-05-21T06:45:35.944Z,21.14
2017-05-21T06:46:35.947Z,21.2
2017-05-21T06:47:35.946Z,21.1
2017-05-21T06:48:35.644Z,21.13
2017-05-21T06:49:35.643Z,20.88
2017-05-21T06:50:35.951Z,20.88
2017-05-21T06:51:35.961Z,21.23
2017-05-21T06:52:35.962Z,21.38
2017-05-21T06:53:35.657Z,21.51
2017-05-21T06:54:35.967Z,21.58
2017-05-21T06:55:35.970Z,21.37
2017-05-21T06:56:35.972Z,21.5
2017-05-21T06:57:35.975Z,21.48
2017-05-21T06:58:35.976Z,21.59
2017-05-21T06:59:35.983Z,21.51
2017-05-21T07:00:35.981Z,21.4
2017-05-21T07:01:35.682Z,21.6
2017-05-21T07:02:35.685Z,21.77
2017-05-21T07:03:35.688Z,21.78
2017-05-21T07:04:35.994Z,21.91
2017-05-21T07:05:36.051Z,21.99
2017-05-21T07:06:35.694Z,22.33
2017-05-21T07:07:36.005Z,22.46
2017-05-21T07:08:36.003Z,22.49
2017-05-21T07:09:36.011Z,22.53
2017-05-21T07:10:36.015Z,22.47
2017-05-21T07:11:35.703Z,22.49
2017-05-21T07:12:36.019Z,22.4
2017-05-21T07:13:36.016Z,22.46
2017-05-21T07:14:35.712Z,22.55
2017-05-21T07:15:35.716Z,22.56
2017-05-21T07:16:35.717Z,22.47
2017-05-21T07:17:35.714Z,22.28
2017-05-21T07:18:35.722Z,22.15
2017-05-21T07:19:36.026Z,22.07
2017-05-21T07:20:35.719Z,22.14
2017-05-21T07:21:36.029Z,22.22
2017-05-21T07:22:35.433Z,22.33
2017-05-21T07:23:35.726Z,22.25
2017-05-21T07:24:36.034Z,22.31
2017-05-21T07:25:35.732Z,22.36
2017-05-21T07:26:36.037Z,22.51
2017-05-21T07:27:36.041Z,22.65
2017-05-21T07:28:36.036Z,22.58
2017-05-21T07:29:36.037Z,22.46
2017-05-21T07:30:36.037Z,22.36
2017-05-21T07:31:36.037Z,22.3
2017-05-21T07:32:35.735Z,22.31
2017-05-21T07:33:35.733Z,22.36
2017-05-21T07:34:36.037Z,22.47
2017-05-21T07:35:36.040Z,22.78
2017-05-21T07:36:36.039Z,22.81
2017-05-21T07:37:36.039Z,23.02
2017-05-21T07:38:35.732Z,23.07
2017-05-21T07:39:36.040Z,22.93
2017-05-21T07:40:36.037Z,22.86
2017-05-21T07:41:36.036Z,22.99
2017-05-21T07:42:35.732Z,23.08
2017-05-21T07:43:36.037Z,23.06
2017-05-21T07:44:35.732Z,22.96
2017-05-21T07:45:35.728Z,22.78
2017-05-21T07:46:36.036Z,22.56
2017-05-21T07:47:36.034Z,22.53
2017-05-21T07:48:36.037Z,22.59
2017-05-21T07:49:36.034Z,22.67
2017-05-21T07:50:36.029Z,22.78
2017-05-21T07:51:36.032Z,22.92
2017-05-21T07:52:36.030Z,23.06
2017-05-21T07:53:36.026Z,23.29
2017-05-21T07:54:36.026Z,23.25
2017-05-21T07:55:36.029Z,23.06
2017-05-21T07:56:36.024Z,22.98
2017-05-21T07:57:36.024Z,23.04
2017-05-21T07:58:36.022Z,22.84
2017-05-21T07:59:35.407Z,22.74
2017-05-21T08:00:35.714Z,22.84
2017-05-21T08:01:36.018Z,23.28
2017-05-21T08:02:36.020Z,23.55
2017-05-21T08:03:36.015Z,23.69
2017-05-21T08:04:35.708Z,23.96
2017-05-21T08:05:36.009Z,24.19
2017-05-21T08:06:36.009Z,24.11
2017-05-21T08:07:36.006Z,24.06
2017-05-21T08:08:35.698Z,24.03
2017-05-21T08:09:35.704Z,23.89
2017-05-21T08:10:36.004Z,23.82
2017-05-21T08:11:36.001Z,24
2017-05-21T08:12:35.687Z,23.74
2017-05-21T08:13:36.012Z,23.77
2017-05-21T08:14:36.209Z,23.71
2017-05-21T08:15:35.990Z,23.82
2017-05-21T08:16:35.988Z,23.99
2017-05-21T08:17:35.991Z,24.11
2017-05-21T08:18:35.989Z,24.26
2017-05-21T08:19:35.676Z,24.03
2017-05-21T08:20:35.982Z,23.86
2017-05-21T08:21:35.982Z,23.81
2017-05-21T08:22:35.977Z,23.67
2017-05-21T08:23:35.977Z,23.63
2017-05-21T08:24:35.970Z,23.76
2017-05-21T08:25:35.969Z,23.86
2017-05-21T08:26:35.966Z,23.82
2017-05-21T08:27:35.657Z,23.54
2017-05-21T08:28:35.349Z,23.42
2017-05-21T08:29:35.963Z,23.13
2017-05-21T08:30:35.653Z,22.88
2017-05-21T08:31:35.955Z,22.84
2017-05-21T08:32:35.949Z,22.95
2017-05-21T08:33:35.950Z,23.06
2017-05-21T08:34:35.994Z,23.06
2017-05-21T08:35:35.636Z,23.18
2017-05-21T08:36:35.632Z,22.91
2017-05-21T08:37:35.632Z,22.59
2017-05-21T08:38:35.934Z,22.47
2017-05-21T08:39:35.932Z,22.08
2017-05-21T08:40:35.927Z,21.65
2017-05-21T08:41:35.620Z,21.4
2017-05-21T08:42:35.619Z,21.04
2017-05-21T08:43:35.918Z,20.67
2017-05-21T08:44:35.916Z,20.48
2017-05-21T08:45:35.916Z,20.12
2017-05-21T08:46:35.300Z,19.92
2017-05-21T08:47:35.299Z,19.84
2017-05-21T08:48:35.604Z,19.71
2017-05-21T08:49:35.593Z,19.62
2017-05-21T08:50:35.898Z,19.56
2017-05-21T08:51:35.588Z,19.45
2017-05-21T08:52:35.892Z,19.47
2017-05-21T08:53:35.889Z,19.3
2017-05-21T08:54:35.883Z,19.26
2017-05-21T08:55:35.924Z,19.17
2017-05-21T08:56:35.883Z,19.01
2017-05-21T08:57:35.266Z,18.97
2017-05-21T08:58:35.870Z,18.88
2017-05-21T08:59:35.869Z,18.71
2017-05-21T09:00:35.877Z,18.67
2017-05-21T09:01:35.859Z,18.57
2017-05-21T09:02:35.858Z,18.64
2017-05-21T09:03:35.853Z,18.57
2017-05-21T09:04:35.852Z,18.49
2017-05-21T09:05:35.542Z,18.41
2017-05-21T09:06:35.540Z,18.46
2017-05-21T09:07:35.844Z,18.55
2017-05-21T09:08:35.838Z,18.39
2017-05-21T09:09:35.221Z,18.49
2017-05-21T09:10:35.529Z,18.51
2017-05-21T09:11:35.832Z,18.61
2017-05-21T09:12:35.521Z,18.7
2017-05-21T09:13:35.825Z,18.67
2017-05-21T09:14:35.820Z,18.71
2017-05-21T09:15:35.822Z,18.66
2017-05-21T09:16:35.816Z,18.67
2017-05-21T09:17:35.809Z,18.71
2017-05-21T09:18:35.809Z,18.73
2017-05-21T09:19:35.804Z,18.66
2017-05-21T09:20:35.798Z,18.71
2017-05-21T09:21:35.799Z,18.74
2017-05-21T09:22:35.793Z,18.66
2017-05-21T09:23:35.790Z,18.74
2017-05-21T09:24:35.785Z,18.67
2017-05-21T09:25:35.474Z,18.74
2017-05-21T09:26:35.777Z,18.73
2017-05-21T09:27:35.778Z,18.78
2017-05-21T09:28:35.464Z,18.66
2017-05-21T09:29:35.771Z,18.51
2017-05-21T09:30:35.457Z,18.61
2017-05-21T09:31:35.762Z,18.64
2017-05-21T09:32:35.758Z,18.78
2017-05-21T09:33:35.751Z,18.73
2017-05-21T09:34:35.751Z,18.74
2017-05-21T09:35:35.756Z,18.83
2017-05-21T09:36:35.747Z,18.86
2017-05-21T09:37:35.130Z,18.92
2017-05-21T09:38:35.735Z,18.88
2017-05-21T09:39:35.430Z,18.83
2017-05-21T09:40:35.731Z,18.81
2017-05-21T09:41:35.418Z,18.66
2017-05-21T09:42:35.110Z,18.71
2017-05-21T09:43:35.718Z,18.7
2017-05-21T09:44:35.408Z,18.7
2017-05-21T09:45:35.716Z,18.67
2017-05-21T09:46:35.400Z,18.68
2017-05-21T09:47:35.708Z,18.55
2017-05-21T09:48:35.401Z,18.61
2017-05-21T09:49:35.700Z,18.68
2017-05-21T09:50:35.390Z,18.68
2017-05-21T09:51:35.691Z,18.57
2017-05-21T09:52:35.078Z,18.63
2017-05-21T09:53:35.685Z,18.57
2017-05-21T09:54:35.682Z,18.6
2017-05-21T09:55:35.372Z,18.68
2017-05-21T09:56:35.672Z,18.71
2017-05-21T09:57:35.670Z,18.7
2017-05-21T09:58:35.359Z,18.64
2017-05-21T09:59:35.355Z,18.67
2017-05-21T10:00:35.658Z,18.68
2017-05-21T10:01:35.348Z,18.79
2017-05-21T10:02:35.348Z,18.83
2017-05-21T10:03:35.649Z,18.66
2017-05-21T10:04:35.338Z,18.71
2017-05-21T10:05:35.640Z,18.67
2017-05-21T10:06:35.332Z,18.7
2017-05-21T10:07:35.328Z,18.61
2017-05-21T10:08:35.324Z,18.6
2017-05-21T10:09:35.320Z,18.57
2017-05-21T10:10:35.013Z,18.64
2017-05-21T10:11:35.619Z,18.68
2017-05-21T10:12:35.309Z,18.73
2017-05-21T10:13:35.311Z,18.71
2017-05-21T10:14:35.609Z,18.85
2017-05-21T10:15:35.603Z,18.79
2017-05-21T10:16:35.299Z,18.67
2017-05-21T10:17:35.599Z,18.67
2017-05-21T10:18:35.287Z,18.67
2017-05-21T10:19:35.287Z,18.73
2017-05-21T10:20:35.589Z,18.83
2017-05-21T10:21:35.275Z,18.88
2017-05-21T10:22:35.273Z,18.92
2017-05-21T10:23:35.280Z,18.92
2017-05-21T10:24:35.269Z,18.92
2017-05-21T10:25:35.263Z,18.86
2017-05-21T10:26:35.261Z,18.74
2017-05-21T10:27:35.564Z,18.83
2017-05-21T10:28:35.251Z,18.81
2017-05-21T10:29:35.551Z,18.79
2017-05-21T10:30:35.548Z,18.86
2017-05-21T10:31:35.549Z,18.92
2017-05-21T10:32:35.246Z,18.96
2017-05-21T10:33:35.232Z,18.98
2017-05-21T10:34:35.537Z,18.94
2017-05-21T10:35:35.531Z,18.94
2017-05-21T10:36:35.531Z,18.86
2017-05-21T10:37:35.524Z,18.94
2017-05-21T10:38:35.521Z,18.92
2017-05-21T10:39:35.214Z,19.05
2017-05-21T10:40:35.546Z,19.01
2017-05-21T10:41:35.512Z,19.07
2017-05-21T10:42:35.508Z,19.01
2017-05-21T10:43:35.500Z,19.01
2017-05-21T10:44:35.506Z,19.01
2017-05-21T10:45:35.499Z,19.05
2017-05-21T10:46:35.496Z,19.04
2017-05-21T10:47:35.485Z,19
2017-05-21T10:48:35.488Z,19.09
2017-05-21T10:49:35.486Z,19.15
2017-05-21T10:50:35.170Z,19.07
2017-05-21T10:51:35.471Z,19.07
2017-05-21T10:52:35.468Z,19.08
2017-05-21T10:53:35.162Z,19.01
2017-05-21T10:54:35.156Z,18.94
2017-05-21T10:55:35.456Z,18.88
2017-05-21T10:56:35.455Z,18.79
2017-05-21T10:57:35.451Z,18.78
2017-05-21T10:58:35.142Z,18.83
2017-05-21T10:59:35.441Z,18.88
2017-05-21T11:00:35.487Z,18.89
2017-05-21T11:01:34.822Z,19
2017-05-21T11:02:35.125Z,18.96
2017-05-21T11:03:35.123Z,19.04
2017-05-21T11:04:35.428Z,19.08
2017-05-21T11:05:35.420Z,19.19
2017-05-21T11:06:35.415Z,19.22
2017-05-21T11:07:35.417Z,19.24
2017-05-21T11:08:35.415Z,19.24
2017-05-21T11:09:35.408Z,19.35
2017-05-21T11:10:35.401Z,19.37
2017-05-21T11:11:35.403Z,19.37
2017-05-21T11:12:35.408Z,19.41
2017-05-21T11:13:35.392Z,19.38
2017-05-21T11:14:35.390Z,19.41
2017-05-21T11:15:35.081Z,19.52
2017-05-21T11:16:35.079Z,19.45
2017-05-21T11:17:35.378Z,19.45
2017-05-21T11:18:35.072Z,19.53
2017-05-21T11:19:35.370Z,19.57
2017-05-21T11:20:35.367Z,19.71
2017-05-21T11:21:35.054Z,19.71
2017-05-21T11:22:35.358Z,19.66
2017-05-21T11:23:35.358Z,19.6
2017-05-21T11:24:35.353Z,19.56
2017-05-21T11:25:35.358Z,19.56
2017-05-21T11:26:35.343Z,19.48
2017-05-21T11:27:35.092Z,19.47
2017-05-21T11:28:35.336Z,19.45
2017-05-21T11:29:35.336Z,19.53
2017-05-21T11:30:35.022Z,19.55
2017-05-21T11:31:35.329Z,19.55
2017-05-21T11:32:35.018Z,19.57
2017-05-21T11:33:35.014Z,19.52
2017-05-21T11:34:35.320Z,19.57
2017-05-21T11:35:35.311Z,19.64
2017-05-21T11:36:35.004Z,19.57
2017-05-21T11:37:35.307Z,19.74
2017-05-21T11:38:35.312Z,19.79
2017-05-21T11:39:35.297Z,19.85
2017-05-21T11:40:35.293Z,20
2017-05-21T11:41:34.984Z,20
2017-05-21T11:42:34.982Z,19.99
2017-05-21T11:43:34.997Z,19.99
2017-05-21T11:44:34.977Z,20.02
2017-05-21T11:45:34.968Z,20
2017-05-21T11:46:34.963Z,19.85
2017-05-21T11:47:34.962Z,19.81
2017-05-21T11:48:34.957Z,19.75
2017-05-21T11:49:34.957Z,19.66
2017-05-21T11:50:34.952Z,19.7
2017-05-21T11:51:35.251Z,19.82
2017-05-21T11:52:34.949Z,19.82
2017-05-21T11:53:35.244Z,19.93
2017-05-21T11:54:34.939Z,20.04
2017-05-21T11:55:34.627Z,20.15
2017-05-21T11:56:34.933Z,20.12
2017-05-21T11:57:34.929Z,20.04
2017-05-21T11:58:34.924Z,20.12
2017-05-21T11:59:34.921Z,20.03
2017-05-21T12:00:35.224Z,20.03
2017-05-21T12:01:34.915Z,20.07
2017-05-21T12:02:35.221Z,20.21
2017-05-21T12:03:35.211Z,20.3
2017-05-21T12:04:35.213Z,20.32
2017-05-21T12:05:34.593Z,20.21
2017-05-21T12:06:34.896Z,20.17
2017-05-21T12:07:34.894Z,20.17
2017-05-21T12:08:34.584Z,20.15
2017-05-21T12:09:34.887Z,20.21
2017-05-21T12:10:34.881Z,20.14
2017-05-21T12:11:34.880Z,20.18
2017-05-21T12:12:34.879Z,20.3
2017-05-21T12:13:35.180Z,20.36
2017-05-21T12:14:34.870Z,20.29
2017-05-21T12:15:35.174Z,20.21
2017-05-21T12:16:34.861Z,20.24
2017-05-21T12:17:34.863Z,20.19
2017-05-21T12:18:34.855Z,20.33
2017-05-21T12:19:34.852Z,20.33
2017-05-21T12:20:35.157Z,20.33
2017-05-21T12:21:35.155Z,20.52
2017-05-21T12:22:35.160Z,20.58
2017-05-21T12:23:35.146Z,20.64
2017-05-21T12:24:35.146Z,20.59
2017-05-21T12:25:35.143Z,20.59
2017-05-21T12:26:35.137Z,20.55
2017-05-21T12:27:34.827Z,20.5
2017-05-21T12:28:35.131Z,20.52
2017-05-21T12:29:35.136Z,20.4
2017-05-21T12:30:35.130Z,20.3
2017-05-21T12:31:34.818Z,20.46
2017-05-21T12:32:35.118Z,20.49
2017-05-21T12:33:35.115Z,20.42
2017-05-21T12:34:34.810Z,20.48
2017-05-21T12:35:35.108Z,20.59
2017-05-21T12:36:35.107Z,20.56
2017-05-21T12:37:35.109Z,20.63
2017-05-21T12:38:34.798Z,20.56
2017-05-21T12:39:35.101Z,20.46
2017-05-21T12:40:35.098Z,20.42
2017-05-21T12:41:35.092Z,20.42
2017-05-21T12:42:35.090Z,20.55
2017-05-21T12:43:34.783Z,20.5
2017-05-21T12:44:35.089Z,20.58
2017-05-21T12:45:35.081Z,20.53
2017-05-21T12:46:35.077Z,20.42
2017-05-21T12:47:35.073Z,20.4
2017-05-21T12:48:35.073Z,20.46
2017-05-21T12:49:35.077Z,20.3
2017-05-21T12:50:35.067Z,20.26
2017-05-21T12:51:34.755Z,20.32
2017-05-21T12:52:35.058Z,20.21
2017-05-21T12:53:34.750Z,20.15
2017-05-21T12:54:35.056Z,20.19
2017-05-21T12:55:34.744Z,20.33
2017-05-21T12:56:34.433Z,20.21
2017-05-21T12:57:35.043Z,20.24